createdAt,value
2024-03-09T00:03:32.504Z,29.92
2024-03-09T00:08:32.428Z,31.17
2024-03-09T00:13:31.151Z,28.92
2024-03-09T00:18:40.847Z,29.33
2024-03-09T00:23:51.895Z,28.63
2024-03-09T00:28:52.091Z,29.05
2024-03-09T00:33:53.689Z,29.35
2024-03-09T00:38:52.217Z,28.52
2024-03-09T00:43:57.326Z,30.95
2024-03-09T00:48:55.541Z,29.55
2024-03-09T00:53:54.910Z,29.70
2024-03-09T00:58:59.070Z,30.63
2024-03-09T01:04:01.052Z,29.17
2024-03-09T01:08:59.699Z,29.50
2024-03-09T01:13:58.418Z,30.35
2024-03-09T01:18:56.881Z,30.67
2024-03-09T01:23:55.281Z,31.42
2024-03-09T01:28:53.985Z,29.38
2024-03-09T01:33:53.072Z,30.92
2024-03-09T01:38:54.485Z,30.50
2024-03-09T01:43:53.343Z,30.15
2024-03-09T01:48:51.913Z,32.58
2024-03-09T01:53:54.679Z,32.40
2024-03-09T01:58:53.796Z,30.60
2024-03-09T02:03:54.440Z,31.08
2024-03-09T02:08:52.713Z,31.00
2024-03-09T02:13:56.713Z,29.75
2024-03-09T02:18:56.623Z,28.45
2024-03-09T02:23:58.798Z,28.23
2024-03-09T02:28:57.979Z,29.58
2024-03-09T02:33:57.154Z,28.60
2024-03-09T02:38:56.916Z,29.17
2024-03-09T02:43:57.106Z,29.42
2024-03-09T02:48:55.511Z,29.95
2024-03-09T02:53:53.726Z,29.52
2024-03-09T02:58:51.926Z,29.77
2024-03-09T03:04:03.486Z,28.13
2024-03-09T03:09:14.019Z,28.73
2024-03-09T03:14:13.457Z,29.10
2024-03-09T03:19:11.724Z,27.88
2024-03-09T03:24:14.566Z,28.42
2024-03-09T03:29:18.532Z,27.33
2024-03-09T03:34:17.455Z,27.75
2024-03-09T03:39:16.819Z,28.98
2024-03-09T03:44:17.244Z,27.77
2024-03-09T03:49:15.882Z,29.90
2024-03-09T03:54:14.098Z,28.05
2024-03-09T03:59:12.522Z,30.30
2024-03-09T04:04:10.749Z,30.05
2024-03-09T04:09:09.339Z,30.35
2024-03-09T04:14:07.162Z,30.17
2024-03-09T04:19:08.449Z,28.90
2024-03-09T04:24:07.409Z,29.25
2024-03-09T04:29:05.773Z,28.30
2024-03-09T04:34:04.438Z,31.25
2024-03-09T04:39:02.904Z,32.28
2024-03-09T04:44:02.442Z,31.33
2024-03-09T04:48:59.887Z,31.20
2024-03-09T04:53:58.606Z,30.20
2024-03-09T04:58:56.894Z,29.02
2024-03-09T05:03:56.397Z,31.15
2024-03-09T05:08:56.623Z,30.20
2024-03-09T05:13:54.886Z,30.00
2024-03-09T05:18:56.602Z,29.27
2024-03-09T05:23:54.822Z,29.75
2024-03-09T05:28:52.784Z,31.08
2024-03-09T05:33:51.073Z,29.48
2024-03-09T05:38:51.331Z,29.50
2024-03-09T05:43:49.808Z,32.58
2024-03-09T05:48:47.909Z,31.10
2024-03-09T05:53:46.345Z,31.50
2024-03-09T05:58:44.970Z,30.98
2024-03-09T06:03:44.128Z,30.08
2024-03-09T06:08:42.124Z,31.13
2024-03-09T06:13:48.729Z,29.77
2024-03-09T06:18:49.556Z,30.85
2024-03-09T06:23:47.868Z,32.17
2024-03-09T06:28:46.687Z,32.20
2024-03-09T06:33:46.488Z,33.05
2024-03-09T06:38:45.297Z,31.42
2024-03-09T06:43:44.554Z,28.95
2024-03-09T06:48:42.711Z,30.10
2024-03-09T06:53:42.033Z,29.60
2024-03-09T06:58:40.643Z,32.40
2024-03-09T07:03:39.890Z,31.25
2024-03-09T07:08:37.983Z,33.25
2024-03-09T07:13:36.106Z,34.20
2024-03-09T07:18:38.588Z,30.30
2024-03-09T07:23:39.865Z,30.23
2024-03-09T07:28:37.290Z,30.70
2024-03-09T07:33:36.580Z,30.00
2024-03-09T07:38:35.166Z,25.60
2024-03-09T07:43:36.438Z,23.98
2024-03-09T07:48:35.695Z,25.98
2024-03-09T07:53:35.201Z,24.73
2024-03-09T07:58:33.400Z,20.10
2024-03-09T08:03:35.265Z,21.20
2024-03-09T08:08:40.023Z,16.55
2024-03-09T08:13:37.730Z,16.17
2024-03-09T08:18:37.643Z,14.40
2024-03-09T08:23:37.370Z,14.50
2024-03-09T08:28:36.609Z,14.65
2024-03-09T08:33:34.451Z,12.98
2024-03-09T08:38:33.425Z,12.48
2024-03-09T08:43:33.013Z,13.20
2024-03-09T08:48:31.599Z,13.95
2024-03-09T08:53:29.280Z,13.63
2024-03-09T08:58:27.360Z,13.55
2024-03-09T09:03:25.385Z,12.63
2024-03-09T09:08:26.832Z,11.38
2024-03-09T09:13:27.386Z,12.23
2024-03-09T09:18:25.794Z,11.30
2024-03-09T09:23:25.600Z,10.32
2024-03-09T09:28:24.515Z,11.45
2024-03-09T09:33:24.887Z,11.43
2024-03-09T09:38:27.655Z,9.88
2024-03-09T09:43:27.827Z,9.82
2024-03-09T09:48:25.966Z,6.28
2024-03-09T09:53:24.517Z,5.63
2024-03-09T09:58:22.674Z,8.80
2024-03-09T10:03:23.808Z,5.75
2024-03-09T10:08:21.878Z,6.15
2024-03-09T10:13:20.481Z,5.75
2024-03-09T10:18:18.609Z,6.55
2024-03-09T10:23:21.572Z,6.93
2024-03-09T10:28:22.001Z,7.43
2024-03-09T10:33:19.984Z,7.07
2024-03-09T10:38:19.230Z,5.88
2024-03-09T10:43:21.731Z,6.07
2024-03-09T10:48:22.406Z,5.80
2024-03-09T10:53:26.522Z,5.75
2024-03-09T10:58:30.519Z,6.22
2024-03-09T11:03:31.848Z,5.72
2024-03-09T11:08:33.618Z,6.70
2024-03-09T11:13:32.287Z,6.03
2024-03-09T11:18:33.930Z,7.30
2024-03-09T11:23:36.281Z,5.47
2024-03-09T11:28:43.730Z,7.10
2024-03-09T11:33:45.889Z,7.45
2024-03-09T11:38:46.988Z,7.35
2024-03-09T11:43:45.000Z,6.82
2024-03-09T11:48:42.889Z,7.47
2024-03-09T11:53:43.873Z,7.35
2024-03-09T11:58:41.927Z,7.90
2024-03-09T12:03:41.300Z,7.53
2024-03-09T12:08:40.576Z,7.20
2024-03-09T12:13:39.949Z,7.60
2024-03-09T12:18:38.035Z,7.18
2024-03-09T12:23:43.053Z,6.97
2024-03-09T12:28:43.435Z,7.55
2024-03-09T12:33:41.795Z,8.40
2024-03-09T12:38:39.776Z,8.10
2024-03-09T12:43:42.425Z,7.47
2024-03-09T12:48:41.695Z,9.02
2024-03-09T12:53:44.110Z,8.45
2024-03-09T12:58:54.031Z,8.45
2024-03-09T13:03:59.260Z,8.65
2024-03-09T13:09:03.674Z,7.93
2024-03-09T13:14:01.229Z,8.40
2024-03-09T13:18:59.674Z,8.15
2024-03-09T13:23:59.935Z,7.85
2024-03-09T13:28:58.118Z,8.95
2024-03-09T13:33:58.938Z,8.43
2024-03-09T13:38:57.963Z,9.07
2024-03-09T13:43:58.392Z,10.35
2024-03-09T13:48:56.694Z,8.70
2024-03-09T13:53:54.997Z,9.48
2024-03-09T13:58:54.433Z,8.90
2024-03-09T14:03:56.723Z,8.77
2024-03-09T14:08:56.311Z,8.30
2024-03-09T14:13:54.052Z,8.27
2024-03-09T14:18:54.321Z,8.50
2024-03-09T14:23:53.248Z,8.88
2024-03-09T14:28:56.012Z,9.25
2024-03-09T14:33:53.828Z,8.57
2024-03-09T14:38:55.464Z,7.72
2024-03-09T14:43:55.798Z,7.97
2024-03-09T14:48:54.821Z,7.93
2024-03-09T14:53:52.861Z,7.82
2024-03-09T14:58:51.219Z,7.75
2024-03-09T15:03:50.527Z,7.07
2024-03-09T15:08:52.983Z,7.30
2024-03-09T15:13:57.969Z,8.18
2024-03-09T15:18:56.406Z,7.57
2024-03-09T15:23:56.604Z,8.60
2024-03-09T15:28:55.965Z,7.47
2024-03-09T15:33:54.826Z,7.57
2024-03-09T15:38:53.727Z,7.10
2024-03-09T15:43:52.184Z,8.27
2024-03-09T15:48:52.989Z,8.52
2024-03-09T15:53:52.108Z,8.52
2024-03-09T15:58:50.972Z,8.75
2024-03-09T16:03:49.588Z,8.35
2024-03-09T16:08:48.273Z,9.13
2024-03-09T16:13:51.110Z,9.73
2024-03-09T16:18:49.806Z,9.23
2024-03-09T16:23:54.803Z,10.80
2024-03-09T16:28:53.480Z,10.90
2024-03-09T16:33:51.999Z,11.68
2024-03-09T16:38:53.270Z,11.32
2024-03-09T16:43:59.624Z,12.88
2024-03-09T16:48:59.122Z,12.43
2024-03-09T16:53:58.621Z,13.02
2024-03-09T16:59:00.450Z,14.95
2024-03-09T17:04:01.423Z,14.32
2024-03-09T17:09:01.969Z,15.88
2024-03-09T17:13:59.936Z,15.25
2024-03-09T17:18:58.224Z,19.92
2024-03-09T17:24:00.068Z,19.50
2024-03-09T17:28:58.595Z,40.03
2024-03-09T17:33:58.017Z,30.77
2024-03-09T17:38:56.259Z,28.48
2024-03-09T17:43:55.845Z,23.52
2024-03-09T17:48:54.543Z,20.05
2024-03-09T17:53:54.861Z,17.80
2024-03-09T17:58:56.275Z,18.52
2024-03-09T18:03:56.526Z,19.33
2024-03-09T18:08:55.152Z,18.70
2024-03-09T18:13:53.584Z,18.17
2024-03-09T18:18:53.108Z,18.00
2024-03-09T18:23:52.071Z,17.45
2024-03-09T18:28:51.839Z,16.13
2024-03-09T18:33:51.016Z,13.98
2024-03-09T18:38:53.183Z,13.07
2024-03-09T18:43:58.349Z,12.13
2024-03-09T18:48:58.197Z,13.05
2024-03-09T18:53:58.144Z,12.68
2024-03-09T18:58:58.792Z,13.73
2024-03-09T19:03:57.217Z,14.05
2024-03-09T19:08:55.535Z,12.52
2024-03-09T19:13:56.198Z,11.63
2024-03-09T19:18:54.903Z,11.60
2024-03-09T19:23:54.134Z,11.82
2024-03-09T19:28:54.677Z,11.98
2024-03-09T19:33:54.757Z,11.52
2024-03-09T19:38:55.113Z,10.30
2024-03-09T19:43:54.365Z,11.98
2024-03-09T19:48:53.421Z,11.20
2024-03-09T19:53:52.268Z,11.30
2024-03-09T19:58:52.399Z,11.68
2024-03-09T20:03:54.830Z,11.93
2024-03-09T20:08:53.232Z,11.05
2024-03-09T20:13:51.799Z,11.68
2024-03-09T20:18:51.294Z,9.98
2024-03-09T20:23:53.877Z,10.00
2024-03-09T20:28:53.830Z,9.30
2024-03-09T20:33:52.763Z,10.30
2024-03-09T20:38:53.869Z,9.43
2024-03-09T20:43:52.396Z,8.80
2024-03-09T20:48:52.528Z,9.05
2024-03-09T20:53:52.321Z,12.50
2024-03-09T20:58:52.506Z,10.77
2024-03-09T21:03:51.082Z,10.52
2024-03-09T21:08:50.304Z,15.73
2024-03-09T21:13:50.956Z,21.42
2024-03-09T21:18:49.502Z,15.75
2024-03-09T21:23:50.126Z,18.73
2024-03-09T21:28:49.152Z,17.27
2024-03-09T21:33:48.098Z,18.58
2024-03-09T21:38:46.814Z,17.30
2024-03-09T21:43:47.300Z,16.85
2024-03-09T21:48:47.773Z,21.13
2024-03-09T21:53:50.826Z,18.27
2024-03-09T21:58:49.780Z,14.82
2024-03-09T22:03:51.605Z,22.13
2024-03-09T22:08:54.020Z,20.63
2024-03-09T22:13:54.648Z,16.98
2024-03-09T22:18:55.018Z,17.80
2024-03-09T22:23:53.935Z,21.45
2024-03-09T22:28:54.556Z,23.48
2024-03-09T22:33:53.830Z,20.38
2024-03-09T22:38:53.596Z,19.05
2024-03-09T22:43:56.141Z,18.75
2024-03-09T22:48:55.016Z,22.70
2024-03-09T22:53:54.813Z,24.48
2024-03-09T22:58:53.817Z,21.48
2024-03-09T23:03:56.639Z,17.77
2024-03-09T23:08:56.852Z,16.10
2024-03-09T23:14:00.123Z,21.77
2024-03-09T23:19:00.375Z,19.83
2024-03-09T23:24:01.367Z,19.83
2024-03-09T23:29:00.942Z,20.10
2024-03-09T23:34:00.742Z,15.57
2024-03-09T23:38:59.462Z,17.80
2024-03-09T23:43:59.602Z,16.63
2024-03-09T23:49:02.390Z,17.52
2024-03-09T23:54:02.932Z,16.45
2024-03-09T23:59:02.140Z,16.33
